Time;durP1;ratioP1;P1;durP2;ratioP2;P2;SDS_P1;SDS_P2;PMS_P1;PMS_P2;Temp;Humidity;BMP_temperature;BMP_pressure;BME280_temperature;BME280_humidity;BME280_pressure;Samples;Min_cycle;Max_cycle;Signal;HPM_P1;HPM_P2
2021/07/25 00:00:06;;;;;;;9.32;6.70;;;;;;;16.75;100.00;99399.88;4996191;28;20081;-75
2021/07/25 00:02:34;;;;;;;9.95;6.90;;;;;;;16.75;100.00;99409.78;4996089;28;20383;-75
2021/07/25 00:05:03;;;;;;;7.50;6.20;;;;;;;16.67;100.00;99392.53;4996311;28;20046;-74
2021/07/25 00:07:30;;;;;;;9.27;6.43;;;;;;;16.74;100.00;99403.56;4995057;28;20061;-76
2021/07/25 00:09:57;;;;;;;10.13;6.38;;;;;;;16.65;100.00;99391.84;4996167;28;20117;-76
2021/07/25 00:12:24;;;;;;;8.57;6.07;;;;;;;16.70;100.00;99400.31;5015405;28;20054;-74
2021/07/25 00:14:51;;;;;;;7.55;5.70;;;;;;;16.72;100.00;99400.16;5015459;28;20057;-75
2021/07/25 00:17:18;;;;;;;10.75;6.43;;;;;;;16.72;100.00;99399.31;5015504;28;20100;-75
2021/07/25 00:19:44;;;;;;;12.20;6.45;;;;;;;16.74;100.00;99398.19;5015698;28;20108;-75
2021/07/25 00:22:11;;;;;;;11.70;6.50;;;;;;;16.65;100.00;99389.16;4997732;28;20443;-75
2021/07/25 00:24:39;;;;;;;9.07;5.65;;;;;;;16.63;100.00;99393.00;4995735;28;20424;-74
2021/07/25 00:27:06;;;;;;;9.10;6.32;;;;;;;16.61;100.00;99393.13;4996097;28;20101;-75
2021/07/25 00:29:33;;;;;;;9.50;6.82;;;;;;;16.63;100.00;99395.69;4997171;28;20062;-74
2021/07/25 00:32:05;;;;;;;9.07;6.30;;;;;;;16.53;100.00;99398.44;4997087;28;20061;-75
2021/07/25 00:34:33;;;;;;;7.95;6.38;;;;;;;16.56;100.00;99400.81;4995810;28;20061;-74
2021/07/25 00:37:01;;;;;;;9.00;6.93;;;;;;;16.49;100.00;99394.34;4995663;28;20058;-74
2021/07/25 00:39:28;;;;;;;9.57;6.53;;;;;;;16.49;100.00;99399.72;4995645;28;20050;-75
2021/07/25 00:41:55;;;;;;;10.15;6.60;;;;;;;16.37;100.00;99397.28;4995793;28;20108;-75
2021/07/25 00:44:21;;;;;;;8.52;6.70;;;;;;;16.34;100.00;99394.84;4995679;28;20213;-75
2021/07/25 00:46:57;;;;;;;10.38;5.90;;;;;;;16.31;100.00;99387.09;4995659;28;20054;-75
2021/07/25 00:49:26;;;;;;;7.60;5.43;;;;;;;16.30;100.00;99390.78;4994428;28;20055;-75
2021/07/25 00:51:53;;;;;;;7.55;5.85;;;;;;;16.25;100.00;99393.91;4994699;28;20058;-74
2021/07/25 00:54:21;;;;;;;8.80;5.63;;;;;;;16.23;100.00;99389.69;4995657;28;20108;-77
2021/07/25 00:56:48;;;;;;;8.80;6.05;;;;;;;16.22;100.00;99393.34;4995589;28;20451;-76
2021/07/25 00:59:14;;;;;;;8.07;5.78;;;;;;;16.14;100.00;99389.56;4995427;28;20050;-76
2021/07/25 01:01:41;;;;;;;10.63;6.00;;;;;;;16.08;100.00;99400.94;4995538;28;20062;-74
2021/07/25 01:04:36;;;;;;;9.10;5.65;;;;;;;16.09;100.00;99388.34;4995467;28;20058;-74
2021/07/25 01:07:26;;;;;;;8.48;5.57;;;;;;;16.10;100.00;99400.78;4995760;28;20205;-74
2021/07/25 01:10:07;;;;;;;12.70;5.50;;;;;;;16.03;100.00;99400.56;4995459;28;20395;-76
2021/07/25 01:12:44;;;;;;;;;;;;;;;15.99;100.00;99393.75;4976878;28;20055;-75
2021/07/25 01:15:17;;;;;;;8.38;5.20;;;;;;;15.91;100.00;99394.44;4977625;28;19986;-75
2021/07/25 01:17:43;;;;;;;11.30;5.18;;;;;;;15.94;100.00;99393.34;4978836;28;20102;-75
2021/07/25 01:20:11;;;;;;;10.50;5.80;;;;;;;15.88;100.00;99390.25;4980791;28;20428;-75
2021/07/25 01:22:41;;;;;;;7.82;5.22;;;;;;;15.82;100.00;99388.13;4998943;28;20050;-74
2021/07/25 01:25:10;;;;;;;9.55;5.25;;;;;;;15.83;100.00;99373.69;4998780;28;20054;-75
2021/07/25 01:27:52;;;;;;;7.35;5.28;;;;;;;15.77;100.00;99370.72;4999006;28;20050;-74
2021/07/25 01:30:22;;;;;;;8.80;5.05;;;;;;;15.74;100.00;99371.84;4999010;28;20404;-74
2021/07/25 01:32:56;;;;;;;9.48;5.47;;;;;;;15.74;100.00;99377.22;4999189;28;20049;-74
2021/07/25 01:35:24;;;;;;;6.63;5.80;;;;;;;15.67;100.00;99376.13;4999013;28;20055;-75
2021/07/25 01:37:51;;;;;;;7.50;5.30;;;;;;;15.68;100.00;99373.28;4999026;28;20103;-74
2021/07/25 01:40:22;;;;;;;10.75;5.25;;;;;;;15.64;100.00;99365.66;4998976;28;20141;-75
2021/07/25 01:42:48;;;;;;;8.73;5.05;;;;;;;15.70;100.00;99379.38;4997700;28;20523;-75
2021/07/25 01:45:15;;;;;;;8.85;5.57;;;;;;;15.72;100.00;99376.53;4997477;28;20050;-75
2021/07/25 01:47:42;;;;;;;11.13;5.10;;;;;;;15.77;100.00;99381.47;4998540;28;20117;-75
2021/07/25 01:50:10;;;;;;;7.70;4.85;;;;;;;15.78;100.00;99380.47;4998654;28;20046;-75
2021/07/25 01:52:37;;;;;;;5.65;4.55;;;;;;;15.84;100.00;99378.06;4998600;28;20128;-75
2021/07/25 01:55:05;;;;;;;7.07;4.93;;;;;;;15.75;100.00;99371.72;4998634;28;20717;-74
2021/07/25 01:57:31;;;;;;;6.15;5.05;;;;;;;15.81;100.00;99380.19;4998427;28;20085;-73
2021/07/25 01:59:58;;;;;;;7.03;4.82;;;;;;;15.77;100.00;99387.72;4998309;28;20128;-74
2021/07/25 02:02:25;;;;;;;7.45;4.72;;;;;;;15.79;100.00;99391.09;4998198;28;20050;-74
2021/07/25 02:04:53;;;;;;;8.55;4.88;;;;;;;15.75;100.00;99387.03;4997215;28;20101;-74
2021/07/25 02:07:19;;;;;;;6.10;4.50;;;;;;;15.73;100.00;99387.16;4997071;28;20194;-75
2021/07/25 02:09:46;;;;;;;8.60;4.75;;;;;;;15.75;100.00;99385.16;4998402;28;20105;-75
2021/07/25 02:12:13;;;;;;;8.00;4.78;;;;;;;15.70;100.00;99383.91;5015901;28;20514;-75
2021/07/25 02:14:40;;;;;;;7.88;4.60;;;;;;;15.64;100.00;99379.13;5017571;28;20054;-75
2021/07/25 02:17:08;;;;;;;9.15;4.72;;;;;;;15.60;100.00;99376.72;5017537;28;20436;-76
2021/07/25 02:19:35;;;;;;;9.43;5.00;;;;;;;15.59;100.00;99377.69;5016627;28;20045;-75
2021/07/25 02:22:03;;;;;;;6.93;4.63;;;;;;;15.52;100.00;99373.91;5001182;28;20105;-76
2021/07/25 02:24:30;;;;;;;10.73;5.13;;;;;;;15.50;100.00;99372.34;4997894;28;20448;-75
2021/07/25 02:26:57;;;;;;;7.38;4.55;;;;;;;15.51;100.00;99374.06;4998349;28;20058;-75
2021/07/25 02:29:24;;;;;;;9.90;4.35;;;;;;;15.44;100.00;99368.41;5015159;28;20104;-75
2021/07/25 02:31:50;;;;;;;10.57;5.18;;;;;;;15.44;100.00;99373.78;5000682;28;20054;-75
2021/07/25 02:34:17;;;;;;;8.52;5.00;;;;;;;15.39;100.00;99368.84;5000418;28;20054;-76
2021/07/25 02:36:44;;;;;;;7.82;4.90;;;;;;;15.30;100.00;99372.38;4997988;28;20109;-76
2021/07/25 02:39:10;;;;;;;6.72;4.93;;;;;;;15.30;100.00;99367.88;4996555;28;20042;-75
2021/07/25 02:41:38;;;;;;;8.75;5.45;;;;;;;15.28;100.00;99364.47;4997543;28;20436;-75
2021/07/25 02:44:06;;;;;;;7.78;4.90;;;;;;;15.24;100.00;99364.91;4997754;28;20101;-75
2021/07/25 02:46:34;;;;;;;9.98;5.05;;;;;;;15.22;100.00;99365.06;4997587;28;20046;-75
2021/07/25 02:49:02;;;;;;;8.50;5.28;;;;;;;15.18;100.00;99360.94;4997600;28;20129;-75
2021/07/25 02:51:29;;;;;;;7.28;5.30;;;;;;;15.16;100.00;99355.72;4980545;28;20050;-75
2021/07/25 02:53:55;;;;;;;8.30;5.22;;;;;;;15.13;100.00;99364.06;4997422;28;20054;-75
2021/07/25 02:56:22;;;;;;;7.00;5.00;;;;;;;15.12;100.00;99364.22;4998148;28;20054;-76
2021/07/25 02:58:49;;;;;;;6.93;4.43;;;;;;;15.10;100.00;99360.81;4997101;28;20073;-75
2021/07/25 03:01:17;;;;;;;17.58;5.13;;;;;;;15.11;100.00;99365.19;4997023;28;20392;-75
2021/07/25 03:03:44;;;;;;;10.43;4.70;;;;;;;15.06;100.00;99354.88;4997444;28;20101;-75
2021/07/25 03:06:11;;;;;;;11.77;5.05;;;;;;;15.08;100.00;99352.91;4997046;28;20054;-75
2021/07/25 03:08:37;;;;;;;9.40;5.00;;;;;;;15.02;100.00;99357.00;4997097;28;20066;-76
2021/07/25 03:11:09;;;;;;;8.90;4.90;;;;;;;14.99;100.00;99362.66;5005568;28;20116;-75
2021/07/25 03:13:36;;;;;;;6.38;4.47;;;;;;;14.98;100.00;99357.44;5015759;28;20111;-75
2021/07/25 03:16:06;;;;;;;8.52;4.78;;;;;;;14.98;100.00;99352.06;5016671;28;20061;-74
2021/07/25 03:18:33;;;;;;;10.40;5.18;;;;;;;14.89;100.00;99348.38;5016384;28;20053;-75
2021/07/25 03:21:00;;;;;;;7.30;4.53;;;;;;;14.92;100.00;99353.47;5008867;28;20050;-75
2021/07/25 03:23:28;;;;;;;7.63;4.47;;;;;;;14.90;100.00;99342.03;5011699;28;20050;-74
2021/07/25 03:25:54;;;;;;;10.63;4.78;;;;;;;14.96;100.00;99354.03;4996960;28;20058;-75
2021/07/25 03:28:22;;;;;;;5.93;4.55;;;;;;;14.98;100.00;99346.69;4996856;28;20105;-75
2021/07/25 03:30:50;;;;;;;10.90;4.88;;;;;;;14.84;100.00;99340.75;4996816;28;20105;-75
2021/07/25 03:33:18;;;;;;;6.60;4.93;;;;;;;14.89;100.00;99343.00;4996489;28;20105;-74
2021/07/25 03:35:46;;;;;;;12.38;5.07;;;;;;;14.89;100.00;99349.25;4996616;28;20058;-75
2021/07/25 03:38:14;;;;;;;6.43;4.72;;;;;;;14.86;100.00;99341.47;4995986;28;20421;-75
2021/07/25 03:40:43;;;;;;;7.32;5.30;;;;;;;14.85;100.00;99346.97;4995781;28;20105;-74
2021/07/25 03:43:11;;;;;;;8.55;5.70;;;;;;;14.90;100.00;99350.06;4995583;28;20112;-74
2021/07/25 03:45:46;;;;;;;9.68;5.13;;;;;;;14.80;100.00;99352.75;4996385;28;20404;-75
2021/07/25 03:48:13;;;;;;;7.18;4.45;;;;;;;14.77;100.00;99359.25;4996486;28;20054;-74
2021/07/25 03:50:40;;;;;;;9.15;4.88;;;;;;;14.79;100.00;99351.94;4996369;28;20054;-75
2021/07/25 03:53:08;;;;;;;9.55;5.38;;;;;;;14.74;100.00;99350.63;4996322;28;20360;-75
2021/07/25 03:55:36;;;;;;;9.48;4.90;;;;;;;14.73;100.00;99349.78;4996626;28;20054;-74
2021/07/25 03:58:03;;;;;;;8.82;4.95;;;;;;;14.74;100.00;99351.50;4996108;28;20501;-74
2021/07/25 04:00:30;;;;;;;10.05;5.43;;;;;;;14.69;100.00;99351.03;4996074;28;20058;-75
2021/07/25 04:02:57;;;;;;;9.60;4.97;;;;;;;14.71;100.00;99346.38;4996310;28;20054;-75
2021/07/25 04:05:25;;;;;;;8.05;4.90;;;;;;;14.71;100.00;99350.91;4996202;28;20061;-76
2021/07/25 04:07:51;;;;;;;8.60;4.93;;;;;;;14.71;100.00;99341.00;4996290;28;20132;-75
2021/07/25 04:10:18;;;;;;;7.35;4.78;;;;;;;14.64;100.00;99337.19;4998624;28;20050;-75
2021/07/25 04:12:45;;;;;;;10.18;4.70;;;;;;;14.72;100.00;99355.28;5015613;28;20057;-75
2021/07/25 04:15:14;;;;;;;8.88;4.50;;;;;;;14.77;100.00;99350.38;5015741;28;20046;-75
2021/07/25 04:17:41;;;;;;;9.00;5.10;;;;;;;14.74;100.00;99356.88;5015481;28;20053;-75
2021/07/25 04:20:08;;;;;;;8.32;4.93;;;;;;;14.75;100.00;99345.13;5014554;28;20427;-74
2021/07/25 04:22:37;;;;;;;7.75;5.50;;;;;;;14.74;100.00;99356.00;4995728;28;20113;-73
2021/07/25 04:25:06;;;;;;;6.93;4.80;;;;;;;14.79;100.00;99348.38;4996055;28;20054;-75
2021/07/25 04:27:36;;;;;;;7.20;5.07;;;;;;;14.80;100.00;99347.41;4994689;28;20343;-75
2021/07/25 04:30:03;;;;;;;11.77;5.00;;;;;;;14.78;100.00;99342.16;4995738;28;20070;-77
2021/07/25 04:32:30;;;;;;;8.55;4.70;;;;;;;14.83;100.00;99348.94;4995837;28;20050;-74
2021/07/25 04:34:57;;;;;;;10.80;5.45;;;;;;;14.84;100.00;99347.97;4995944;28;20054;-75
2021/07/25 04:37:27;;;;;;;11.27;5.43;;;;;;;14.86;100.00;99354.06;4995917;28;20050;-75
2021/07/25 04:39:56;;;;;;;8.68;5.20;;;;;;;14.88;100.00;99352.91;4995683;28;20141;-76
2021/07/25 04:42:26;;;;;;;9.65;5.30;;;;;;;14.88;100.00;99349.38;4995721;28;20052;-75
2021/07/25 04:44:54;;;;;;;10.70;5.80;;;;;;;14.95;100.00;99350.50;4994689;28;20113;-76
2021/07/25 04:47:55;;;;;;;12.55;5.53;;;;;;;14.85;100.00;99342.44;5010930;28;20120;-76
2021/07/25 04:50:28;;;;;;;12.60;5.55;;;;;;;14.96;100.00;99359.41;5014127;28;20046;-76
2021/07/25 04:53:01;;;;;;;6.03;4.80;;;;;;;14.93;100.00;99344.44;4999801;28;20440;-75
2021/07/25 04:55:33;;;;;;;10.30;5.53;;;;;;;15.02;100.00;99356.16;4999595;28;20054;-75
2021/07/25 04:58:05;;;;;;;9.40;5.70;;;;;;;15.07;100.00;99352.06;4999778;28;20058;-75
2021/07/25 05:00:41;;;;;;;8.77;5.55;;;;;;;15.12;100.00;99353.44;4995248;28;20090;-76
2021/07/25 05:03:10;;;;;;;9.85;6.10;;;;;;;15.17;100.00;99351.19;4993500;28;20068;-74
2021/07/25 05:05:37;;;;;;;10.07;6.03;;;;;;;15.19;100.00;99355.44;5010821;28;20080;-75
2021/07/25 05:08:07;;;;;;;9.57;5.90;;;;;;;15.21;100.00;99350.75;5004672;28;20085;-76
2021/07/25 05:10:35;;;;;;;17.73;5.77;;;;;;;15.27;100.00;99357.41;5038930;28;20061;-76
2021/07/25 05:13:05;;;;;;;10.43;5.05;;;;;;;15.37;100.00;99351.16;5018890;28;20318;-75
2021/07/25 05:15:35;;;;;;;11.27;5.10;;;;;;;15.43;100.00;99354.09;5019063;28;20058;-77
2021/07/25 05:18:07;;;;;;;10.68;4.63;;;;;;;15.45;100.00;99351.28;5011924;28;20093;-76
2021/07/25 05:21:01;;;;;;;9.40;4.35;;;;;;;15.57;100.00;99360.00;4997967;28;20439;-75
2021/07/25 05:23:32;;;;;;;8.00;4.82;;;;;;;15.63;100.00;99353.22;4999072;28;20161;-76
2021/07/25 05:25:59;;;;;;;;;;;;;;;15.74;100.00;99358.41;4999508;28;20093;-74
2021/07/25 05:28:27;;;;;;;4.95;3.92;;;;;;;15.82;100.00;99366.59;4998736;28;19968;-75
2021/07/25 05:30:55;;;;;;;8.52;4.53;;;;;;;15.91;100.00;99366.72;4998141;28;20051;-74
2021/07/25 05:33:23;;;;;;;8.00;4.25;;;;;;;16.00;100.00;99363.16;4997973;28;20051;-75
2021/07/25 05:35:50;;;;;;;8.50;3.97;;;;;;;16.11;100.00;99360.28;4998907;28;20061;-75
2021/07/25 05:38:18;;;;;;;8.82;4.60;;;;;;;16.19;100.00;99358.69;5005917;28;20058;-75
2021/07/25 05:40:45;;;;;;;10.65;4.00;;;;;;;16.23;100.00;99360.09;5015796;28;20068;-75
2021/07/25 05:43:12;;;;;;;5.70;3.53;;;;;;;16.38;100.00;99366.66;4998822;28;20081;-75
2021/07/25 05:45:39;;;;;;;6.13;3.63;;;;;;;16.44;100.00;99362.50;4998560;28;20053;-75
2021/07/25 05:48:06;;;;;;;7.25;3.72;;;;;;;16.53;100.00;99366.13;4998789;28;20054;-76
2021/07/25 05:50:33;;;;;;;5.80;3.40;;;;;;;16.63;100.00;99366.91;4998886;28;20054;-75
2021/07/25 05:53:00;;;;;;;9.75;3.67;;;;;;;16.73;100.00;99366.84;4998545;28;20046;-74
2021/07/25 05:55:32;;;;;;;7.38;3.42;;;;;;;16.69;100.00;99357.38;4998626;28;20050;-76
2021/07/25 05:58:00;;;;;;;9.93;3.53;;;;;;;16.79;99.97;99360.81;4997372;28;20124;-80
2021/07/25 06:00:27;;;;;;;10.68;3.40;;;;;;;16.78;100.00;99358.28;4996770;28;20051;-79
2021/07/25 06:03:01;;;;;;;3.67;3.08;;;;;;;16.83;99.74;99364.91;4993960;28;20054;-75
2021/07/25 06:05:34;;;;;;;10.88;3.95;;;;;;;16.93;99.54;99355.88;4989599;28;20050;-77
2021/07/25 06:08:05;;;;;;;8.40;3.97;;;;;;;16.92;100.00;99355.06;4979244;28;20150;-76
2021/07/25 06:10:34;;;;;;;10.40;3.42;;;;;;;16.91;99.51;99342.59;4983970;28;20379;-76
2021/07/25 06:13:03;;;;;;;4.13;2.88;;;;;;;17.05;99.05;99359.25;4996667;28;20053;-76
2021/07/25 06:15:32;;;;;;;5.60;3.45;;;;;;;17.06;99.39;99355.53;4998745;28;20402;-81
2021/07/25 06:18:03;;;;;;;5.20;2.80;;;;;;;17.09;99.53;99361.47;4995380;28;20084;-77
2021/07/25 06:20:30;;;;;;;8.82;3.63;;;;;;;17.19;98.03;99349.72;4996805;28;20038;-78
2021/07/25 06:22:58;;;;;;;6.63;3.25;;;;;;;17.32;97.21;99362.81;4992970;28;20066;-76
2021/07/25 06:25:28;;;;;;;6.35;3.25;;;;;;;17.34;97.64;99355.41;4994162;28;20412;-82
2021/07/25 06:27:57;;;;;;;6.90;3.25;;;;;;;17.42;95.68;99352.75;4989584;28;20059;-78
2021/07/25 06:30:25;;;;;;;7.43;3.08;;;;;;;17.47;96.75;99345.03;4991492;28;20098;-78
2021/07/25 06:32:59;;;;;;;8.75;3.65;;;;;;;17.56;95.44;99347.78;4980285;28;20057;-77
2021/07/25 06:35:37;;;;;;;8.07;3.08;;;;;;;17.56;96.33;99343.25;4985252;28;20053;-78
2021/07/25 06:38:07;;;;;;;14.05;3.40;;;;;;;17.48;96.92;99335.09;4979179;28;20330;-77
2021/07/25 06:40:35;;;;;;;5.78;3.22;;;;;;;17.59;96.28;99348.31;4991574;28;20137;-79
2021/07/25 06:43:03;;;;;;;5.60;2.92;;;;;;;17.52;98.12;99333.78;4992179;28;20133;-76
2021/07/25 06:45:31;;;;;;;4.00;2.75;;;;;;;17.71;96.04;99354.28;4987675;28;20050;-77
2021/07/25 06:47:58;;;;;;;5.07;3.10;;;;;;;17.62;96.92;99330.97;4987466;28;20054;-77
2021/07/25 06:50:30;;;;;;;6.25;3.03;;;;;;;17.66;97.83;99345.84;4978002;28;20054;-77
2021/07/25 06:52:58;;;;;;;5.03;3.00;;;;;;;17.82;95.81;99342.34;4980411;28;20054;-75
2021/07/25 06:55:27;;;;;;;4.90;2.92;;;;;;;17.96;92.92;99337.34;4982760;28;20058;-77
2021/07/25 06:57:55;;;;;;;6.50;3.08;;;;;;;17.94;94.32;99342.94;4981220;28;20108;-76
2021/07/25 07:00:22;;;;;;;6.63;2.47;;;;;;;17.98;95.08;99352.38;4943781;28;1216034;-76
2021/07/25 07:02:53;;;;;;;4.68;2.95;;;;;;;18.00;95.94;99339.59;4989653;28;20436;-79
2021/07/25 07:05:25;;;;;;;7.47;2.38;;;;;;;18.14;91.90;99342.72;4989308;28;20061;-81
2021/07/25 07:07:54;;;;;;;3.00;2.55;;;;;;;18.28;90.90;99347.50;4995248;28;20081;-81
2021/07/25 07:10:23;;;;;;;6.97;2.85;;;;;;;18.25;90.89;99330.78;4989813;28;20065;-81
2021/07/25 07:12:51;;;;;;;4.00;2.45;;;;;;;18.29;92.47;99343.78;4990156;28;20061;-78
2021/07/25 07:15:20;;;;;;;4.30;2.47;;;;;;;18.41;92.70;99354.28;4996451;28;20392;-83
2021/07/25 07:17:55;;;;;;;4.53;2.55;;;;;;;18.50;91.90;99357.81;4983949;28;20046;-79
2021/07/25 07:20:23;;;;;;;4.78;2.30;;;;;;;18.68;90.29;99360.44;4991165;28;20524;-83
2021/07/25 07:22:55;;;;;;;4.45;2.50;;;;;;;18.63;90.16;99349.25;4992878;28;20051;-80
2021/07/25 07:25:24;;;;;;;5.35;2.70;;;;;;;18.63;91.74;99360.06;4978622;28;20058;-78
2021/07/25 07:27:51;;;;;;;5.28;3.10;;;;;;;18.58;91.91;99358.69;4985050;28;20061;-84
2021/07/25 07:30:19;;;;;;;6.55;3.00;;;;;;;18.80;90.98;99371.75;4994275;28;20414;-80
2021/07/25 07:32:46;;;;;;;5.75;2.67;;;;;;;18.91;89.34;99374.09;4995090;28;20321;-80
2021/07/25 07:35:13;;;;;;;6.10;2.85;;;;;;;18.92;89.83;99369.56;4994394;28;20046;-78
2021/07/25 07:37:40;;;;;;;3.80;2.63;;;;;;;18.92;91.92;99369.56;4981674;28;20113;-75
2021/07/25 07:40:07;;;;;;;6.85;3.28;;;;;;;19.06;88.22;99373.50;4981103;28;20050;-77
2021/07/25 07:42:34;;;;;;;4.90;2.78;;;;;;;19.12;88.29;99376.34;4986088;28;20046;-78
2021/07/25 07:45:04;;;;;;;5.40;2.70;;;;;;;19.11;89.53;99377.38;4994366;28;20050;-76
2021/07/25 07:47:31;;;;;;;4.60;2.97;;;;;;;19.18;89.96;99380.25;4988535;28;20054;-75
2021/07/25 07:49:57;;;;;;;5.35;2.65;;;;;;;19.25;87.48;99385.84;4985169;28;20061;-74
2021/07/25 07:52:24;;;;;;;6.55;2.78;;;;;;;19.37;87.34;99387.19;4982526;28;20450;-75
2021/07/25 07:54:51;;;;;;;9.57;3.15;;;;;;;19.41;86.79;99374.97;4990728;28;20054;-75
2021/07/25 07:57:18;;;;;;;11.45;3.00;;;;;;;19.32;87.39;99370.59;4984816;28;20439;-76
2021/07/25 07:59:45;;;;;;;8.70;3.10;;;;;;;19.40;88.05;99383.28;4990054;28;20050;-77
2021/07/25 08:02:12;;;;;;;5.82;2.50;;;;;;;19.47;84.60;99381.59;4995838;28;20082;-76
2021/07/25 08:04:39;;;;;;;6.40;2.35;;;;;;;19.51;85.56;99384.81;4986046;28;20086;-77
2021/07/25 08:07:05;;;;;;;4.13;2.40;;;;;;;19.52;86.29;99395.44;4994462;28;20348;-74
2021/07/25 08:09:32;;;;;;;6.28;2.80;;;;;;;19.63;86.65;99394.25;4983178;28;20043;-75
2021/07/25 08:12:01;;;;;;;6.57;2.70;;;;;;;19.69;84.93;99387.31;4981165;28;20062;-76
2021/07/25 08:14:28;;;;;;;4.90;2.78;;;;;;;19.75;86.00;99392.03;4989820;28;20538;-77
2021/07/25 08:16:55;;;;;;;7.55;2.30;;;;;;;19.72;84.90;99373.41;4981323;28;20089;-77
2021/07/25 08:19:25;;;;;;;5.10;2.67;;;;;;;20.03;85.09;99396.19;4993280;28;20074;-74
2021/07/25 08:21:52;;;;;;;4.68;2.30;;;;;;;20.09;84.36;99395.50;4995359;28;20047;-74
2021/07/25 08:24:19;;;;;;;6.97;2.88;;;;;;;20.25;83.52;99401.91;5019814;28;20421;-76
2021/07/25 08:26:45;;;;;;;6.18;2.53;;;;;;;20.34;82.39;99400.84;4996935;28;20054;-74
2021/07/25 08:29:12;;;;;;;6.75;2.03;;;;;;;20.28;82.07;99409.66;4993092;28;20050;-74
2021/07/25 08:31:39;;;;;;;5.55;1.77;;;;;;;20.33;78.42;99410.81;4995034;28;20391;-77
2021/07/25 08:34:05;;;;;;;3.15;2.00;;;;;;;20.43;77.15;99401.66;4983911;28;20136;-77
2021/07/25 08:36:32;;;;;;;4.68;1.85;;;;;;;20.43;78.15;99407.91;4990216;28;20448;-80
2021/07/25 08:38:59;;;;;;;4.30;1.90;;;;;;;20.63;75.40;99393.91;4994633;28;20054;-75
2021/07/25 08:42:03;;;;;;;4.43;1.92;;;;;;;20.66;75.27;99396.28;4994699;28;20652;-73
2021/07/25 08:44:42;;;;;;;7.50;2.13;;;;;;;20.70;74.17;99397.59;4987761;28;20050;-74
2021/07/25 08:47:28;;;;;;;4.75;2.00;;;;;;;20.80;74.02;99388.41;4993104;28;20674;-75
2021/07/25 08:50:07;;;;;;;4.75;1.90;;;;;;;20.86;74.05;99403.97;4995105;28;20047;-76
2021/07/25 08:52:38;;;;;;;9.18;2.28;;;;;;;20.93;74.12;99388.69;4986320;28;20057;-76
2021/07/25 08:55:08;;;;;;;6.43;2.30;;;;;;;20.97;73.92;99406.25;4991960;28;20078;-79
2021/07/25 08:57:37;;;;;;;6.78;1.90;;;;;;;20.92;74.17;99400.53;4987338;28;20051;-73
2021/07/25 09:00:08;;;;;;;3.92;2.03;;;;;;;20.95;73.35;99402.03;4968832;28;20109;-74
2021/07/25 09:02:35;;;;;;;4.40;2.15;;;;;;;20.85;74.86;99395.00;4989273;28;20133;-75
2021/07/25 09:05:03;;;;;;;4.75;1.70;;;;;;;20.86;74.65;99390.41;4990052;28;20054;-74
2021/07/25 09:07:31;;;;;;;5.88;2.20;;;;;;;20.95;77.37;99394.75;4993540;28;20050;-73
2021/07/25 09:10:11;;;;;;;3.55;1.95;;;;;;;21.09;74.67;99403.13;4992974;28;20343;-76
2021/07/25 09:12:41;;;;;;;6.63;1.87;;;;;;;21.19;72.99;99394.75;4986106;28;20054;-73
2021/07/25 09:15:15;;;;;;;3.90;1.77;;;;;;;21.24;74.04;99401.31;4978440;28;20288;-74
2021/07/25 09:17:42;;;;;;;3.03;1.80;;;;;;;21.32;73.77;99399.56;4982153;28;20050;-75
2021/07/25 09:20:23;;;;;;;4.88;2.25;;;;;;;21.42;72.13;99400.16;4977248;28;20101;-72
2021/07/25 09:22:53;;;;;;;4.63;1.80;;;;;;;21.68;70.54;99399.72;4986876;28;20715;-72
2021/07/25 09:25:20;;;;;;;3.87;1.80;;;;;;;21.76;70.15;99398.84;4980019;28;20062;-73
2021/07/25 09:27:55;;;;;;;4.47;1.98;;;;;;;21.94;69.04;99400.31;4985746;28;20050;-74
2021/07/25 09:30:24;;;;;;;5.43;1.67;;;;;;;21.97;69.79;99392.66;4977654;28;20050;-68
2021/07/25 09:32:54;;;;;;;5.63;1.92;;;;;;;22.09;68.46;99394.91;4983904;28;20090;-69
2021/07/25 09:35:33;;;;;;;3.80;1.80;;;;;;;22.21;69.59;99396.13;4982424;28;20097;-75
2021/07/25 09:38:05;;;;;;;4.32;2.08;;;;;;;22.31;69.39;99390.38;4984301;28;20059;-75
2021/07/25 09:40:34;;;;;;;7.68;1.92;;;;;;;22.10;69.45;99392.00;4987779;28;20162;-75
2021/07/25 09:43:09;;;;;;;5.00;1.73;;;;;;;22.04;70.20;99390.03;4983234;28;20507;-74
2021/07/25 09:45:57;;;;;;;4.65;1.80;;;;;;;22.13;70.03;99393.50;4982057;28;20054;-71
2021/07/25 09:48:26;;;;;;;10.38;2.25;;;;;;;22.20;70.10;99388.13;4985171;28;20049;-72
2021/07/25 09:50:56;;;;;;;3.20;1.98;;;;;;;21.94;70.31;99392.19;4983712;28;20055;-73
2021/07/25 09:53:47;;;;;;;10.82;2.33;;;;;;;22.22;68.67;99386.91;4981159;28;20445;-72
2021/07/25 09:56:15;;;;;;;4.90;1.60;;;;;;;22.44;64.67;99372.56;4984342;28;20050;-78
2021/07/25 09:58:44;;;;;;;1.80;1.67;;;;;;;22.76;65.25;99378.56;4983422;28;20052;-75
2021/07/25 10:01:33;;;;;;;4.38;1.67;;;;;;;22.95;66.17;99381.69;4981213;28;20042;-70
2021/07/25 10:04:14;;;;;;;4.53;2.10;;;;;;;23.11;64.33;99381.44;4995098;28;20074;-73
2021/07/25 10:06:46;;;;;;;4.47;2.05;;;;;;;23.17;64.75;99379.81;4990863;28;20052;-71
2021/07/25 10:09:16;;;;;;;5.03;1.80;;;;;;;22.89;64.43;99378.72;4992220;28;20437;-71
2021/07/25 10:11:48;;;;;;;3.20;1.92;;;;;;;22.87;66.08;99386.22;4992208;28;20495;-71
2021/07/25 10:14:18;;;;;;;4.95;1.73;;;;;;;22.61;66.69;99381.34;4997081;28;20042;-72
2021/07/25 10:16:46;;;;;;;7.20;2.20;;;;;;;22.45;70.32;99385.94;4998126;28;20395;-72
2021/07/25 10:19:15;;;;;;;10.02;1.95;;;;;;;22.32;68.57;99383.91;4992957;28;20054;-72
2021/07/25 10:21:43;;;;;;;7.97;2.08;;;;;;;22.30;71.39;99375.13;4987955;28;20122;-73
2021/07/25 10:24:12;;;;;;;5.95;2.00;;;;;;;22.22;71.14;99381.50;4988935;28;20109;-71
2021/07/25 10:26:40;;;;;;;5.57;2.15;;;;;;;22.09;70.11;99374.03;4999685;28;20046;-71
2021/07/25 10:29:08;;;;;;;5.63;1.85;;;;;;;21.97;72.20;99389.09;4989928;28;20058;-71
2021/07/25 10:31:37;;;;;;;5.13;2.17;;;;;;;21.91;69.44;99395.28;4987518;28;20042;-73
2021/07/25 10:34:05;;;;;;;4.07;1.90;;;;;;;21.95;68.38;99389.28;4991825;28;20046;-71
2021/07/25 10:36:33;;;;;;;3.50;1.70;;;;;;;21.93;72.17;99385.06;4994390;28;20042;-71
2021/07/25 10:38:59;;;;;;;4.28;1.80;;;;;;;21.92;72.45;99384.25;4995375;28;20054;-70
2021/07/25 10:41:27;;;;;;;9.38;2.13;;;;;;;22.15;69.92;99396.00;4997462;28;20076;-74
2021/07/25 10:43:54;;;;;;;6.25;2.28;;;;;;;22.08;72.09;99396.78;5017190;28;20104;-70
2021/07/25 10:46:22;;;;;;;2.85;1.75;;;;;;;22.05;73.04;99401.75;4999012;28;20081;-79
2021/07/25 10:48:58;;;;;;;7.10;2.28;;;;;;;21.96;71.50;99395.56;4982012;28;20482;-70
2021/07/25 10:51:28;;;;;;;6.28;2.03;;;;;;;21.76;70.52;99404.28;4983427;28;20046;-71
2021/07/25 10:54:23;;;;;;;4.43;1.65;;;;;;;21.62;69.10;99396.91;4991300;28;20432;-75
2021/07/25 10:57:01;;;;;;;3.58;1.65;;;;;;;21.53;69.38;99398.84;4995708;28;20061;-74
2021/07/25 10:59:55;;;;;;;7.20;2.10;;;;;;;21.48;70.56;99401.28;4989585;28;20364;-75
2021/07/25 11:02:22;;;;;;;4.88;2.10;;;;;;;21.47;76.63;99399.59;4984391;28;20051;-71
2021/07/25 11:04:55;;;;;;;6.63;2.10;;;;;;;21.57;78.68;99394.72;4992432;28;20130;-74
2021/07/25 11:07:22;;;;;;;3.78;1.90;;;;;;;21.54;80.38;99393.25;4980582;28;20078;-76
2021/07/25 11:09:55;;;;;;;5.55;2.13;;;;;;;21.48;79.01;99391.28;4981704;28;20070;-75
2021/07/25 11:12:22;;;;;;;5.95;2.50;;;;;;;21.47;78.99;99383.31;4980157;28;20054;-72
2021/07/25 11:14:55;;;;;;;9.48;2.40;;;;;;;21.41;81.30;99391.16;4996042;28;20055;-74
2021/07/25 11:17:44;;;;;;;4.90;2.10;;;;;;;21.53;79.44;99385.28;4991393;28;20055;-70
2021/07/25 11:20:33;;;;;;;5.18;2.17;;;;;;;21.74;78.00;99383.75;4982918;28;20109;-71
2021/07/25 11:23:02;;;;;;;7.88;2.05;;;;;;;21.90;79.38;99394.44;4990964;28;20046;-70
2021/07/25 11:25:35;;;;;;;3.13;1.80;;;;;;;21.96;75.83;99379.28;4990572;28;20046;-71
2021/07/25 11:28:06;;;;;;;9.93;2.20;;;;;;;22.00;76.53;99366.16;4991882;28;20081;-73
2021/07/25 11:30:54;;;;;;;7.50;2.10;;;;;;;22.06;76.18;99381.69;4987168;28;20416;-71
2021/07/25 11:33:50;;;;;;;6.43;2.30;;;;;;;22.17;77.02;99383.94;4989191;28;20043;-71
2021/07/25 11:36:26;;;;;;;8.68;1.70;;;;;;;22.52;71.59;99376.03;4989918;28;20073;-69
2021/07/25 11:38:55;;;;;;;2.88;1.55;;;;;;;22.93;68.96;99376.44;4990043;28;20105;-70
2021/07/25 11:41:25;;;;;;;3.85;1.42;;;;;;;23.20;64.99;99385.72;5011865;28;20380;-72